sensor_id;sensor_type;location;lat;lon;timestamp;temperature;humidity
13470;DHT22;6807;48.682;9.032;2023-04-06T00:00:59;-1.40;99.90
13470;DHT22;6807;48.682;9.032;2023-04-06T00:03:26;-1.40;99.90
13470;DHT22;6807;48.682;9.032;2023-04-06T00:05:53;-1.50;99.90
13470;DHT22;6807;48.682;9.032;2023-04-06T00:08:21;-1.50;99.90
13470;DHT22;6807;48.682;9.032;2023-04-06T00:10:49;-2.10;99.90
13470;DHT22;6807;48.682;9.032;2023-04-06T00:13:18;-1.50;99.90
13470;DHT22;6807;48.682;9.032;2023-04-06T00:15:45;-1.60;99.90
13470;DHT22;6807;48.682;9.032;2023-04-06T00:18:12;-1.60;99.90
13470;DHT22;6807;48.682;9.032;2023-04-06T00:20:39;-1.70;99.90
13470;DHT22;6807;48.682;9.032;2023-04-06T00:23:08;-1.70;99.90
13470;DHT22;6807;48.682;9.032;2023-04-06T00:25:35;-1.70;99.90
13470;DHT22;6807;48.682;9.032;2023-04-06T00:28:03;-1.70;99.90
13470;DHT22;6807;48.682;9.032;2023-04-06T00:30:32;-1.70;99.90
13470;DHT22;6807;48.682;9.032;2023-04-06T00:33:00;-1.70;99.90
13470;DHT22;6807;48.682;9.032;2023-04-06T00:35:27;-1.60;99.90
13470;DHT22;6807;48.682;9.032;2023-04-06T00:37:55;-1.60;99.90
13470;DHT22;6807;48.682;9.032;2023-04-06T00:40:22;-1.70;99.90
13470;DHT22;6807;48.682;9.032;2023-04-06T00:42:49;-0.70;99.90
13470;DHT22;6807;48.682;9.032;2023-04-06T00:45:18;-1.80;99.90
13470;DHT22;6807;48.682;9.032;2023-04-06T00:47:46;-1.90;99.90
13470;DHT22;6807;48.682;9.032;2023-04-06T00:50:13;-1.90;99.90
13470;DHT22;6807;48.682;9.032;2023-04-06T00:52:40;-2.00;99.90
13470;DHT22;6807;48.682;9.032;2023-04-06T00:55:08;-1.90;99.90
13470;DHT22;6807;48.682;9.032;2023-04-06T00:57:35;-1.90;99.90
13470;DHT22;6807;48.682;9.032;2023-04-06T01:00:04;-1.90;99.90
13470;DHT22;6807;48.682;9.032;2023-04-06T01:02:32;-1.90;99.90
13470;DHT22;6807;48.682;9.032;2023-04-06T01:05:00;-2.00;99.90
13470;DHT22;6807;48.682;9.032;2023-04-06T01:07:27;-2.00;99.90
13470;DHT22;6807;48.682;9.032;2023-04-06T01:09:54;-2.10;99.90
13470;DHT22;6807;48.682;9.032;2023-04-06T01:12:22;-2.10;99.90
13470;DHT22;6807;48.682;9.032;2023-04-06T01:14:50;-2.10;99.90
13470;DHT22;6807;48.682;9.032;2023-04-06T01:17:17;-2.10;99.90
13470;DHT22;6807;48.682;9.032;2023-04-06T01:19:44;-2.00;99.90
13470;DHT22;6807;48.682;9.032;2023-04-06T01:22:15;-2.10;99.90
13470;DHT22;6807;48.682;9.032;2023-04-06T01:24:43;-2.10;99.90
13470;DHT22;6807;48.682;9.032;2023-04-06T01:27:13;-2.10;99.90
13470;DHT22;6807;48.682;9.032;2023-04-06T01:29:40;-2.20;99.90
13470;DHT22;6807;48.682;9.032;2023-04-06T01:32:08;-1.60;99.90
13470;DHT22;6807;48.682;9.032;2023-04-06T01:34:36;-2.20;99.90
13470;DHT22;6807;48.682;9.032;2023-04-06T01:37:03;-2.30;99.90
13470;DHT22;6807;48.682;9.032;2023-04-06T01:39:32;-2.20;99.90
13470;DHT22;6807;48.682;9.032;2023-04-06T01:41:59;-2.20;99.90
13470;DHT22;6807;48.682;9.032;2023-04-06T01:44:26;-2.20;99.90
13470;DHT22;6807;48.682;9.032;2023-04-06T01:46:55;-2.30;99.90
13470;DHT22;6807;48.682;9.032;2023-04-06T01:49:22;-2.30;99.90
13470;DHT22;6807;48.682;9.032;2023-04-06T01:51:50;-2.10;99.90
13470;DHT22;6807;48.682;9.032;2023-04-06T01:54:18;-2.30;99.90
13470;DHT22;6807;48.682;9.032;2023-04-06T01:56:47;-2.40;1.00
13470;DHT22;6807;48.682;9.032;2023-04-06T01:59:15;-2.40;1.00
13470;DHT22;6807;48.682;9.032;2023-04-06T02:01:42;-2.40;1.00
13470;DHT22;6807;48.682;9.032;2023-04-06T02:04:12;-2.40;1.00
13470;DHT22;6807;48.682;9.032;2023-04-06T02:06:40;-2.50;1.00
13470;DHT22;6807;48.682;9.032;2023-04-06T02:09:07;-2.40;1.00
13470;DHT22;6807;48.682;9.032;2023-04-06T02:11:34;-2.40;1.00
13470;DHT22;6807;48.682;9.032;2023-04-06T02:14:02;-2.50;1.00
13470;DHT22;6807;48.682;9.032;2023-04-06T02:16:29;-2.50;1.00
13470;DHT22;6807;48.682;9.032;2023-04-06T02:18:56;-2.50;1.00
13470;DHT22;6807;48.682;9.032;2023-04-06T02:21:23;-2.30;1.00
13470;DHT22;6807;48.682;9.032;2023-04-06T02:23:53;-2.60;1.00
13470;DHT22;6807;48.682;9.032;2023-04-06T02:26:20;-2.60;1.00
13470;DHT22;6807;48.682;9.032;2023-04-06T02:28:47;-2.40;1.00
13470;DHT22;6807;48.682;9.032;2023-04-06T02:31:16;-2.60;1.00
13470;DHT22;6807;48.682;9.032;2023-04-06T02:33:42;-2.70;1.00
13470;DHT22;6807;48.682;9.032;2023-04-06T02:36:10;-2.70;1.00
13470;DHT22;6807;48.682;9.032;2023-04-06T02:38:41;-2.70;1.00
13470;DHT22;6807;48.682;9.032;2023-04-06T02:41:09;-2.70;1.00
13470;DHT22;6807;48.682;9.032;2023-04-06T02:43:36;-2.70;1.00
13470;DHT22;6807;48.682;9.032;2023-04-06T02:46:03;-2.70;1.00
13470;DHT22;6807;48.682;9.032;2023-04-06T02:48:31;-2.70;1.00
13470;DHT22;6807;48.682;9.032;2023-04-06T02:51:01;-2.70;1.00
13470;DHT22;6807;48.682;9.032;2023-04-06T02:53:28;-2.70;1.00
13470;DHT22;6807;48.682;9.032;2023-04-06T02:55:57;-2.80;1.00
13470;DHT22;6807;48.682;9.032;2023-04-06T02:58:26;-2.40;1.00
13470;DHT22;6807;48.682;9.032;2023-04-06T03:00:54;-2.90;1.00
13470;DHT22;6807;48.682;9.032;2023-04-06T03:03:22;-2.90;1.00
13470;DHT22;6807;48.682;9.032;2023-04-06T03:05:50;-2.90;1.00
13470;DHT22;6807;48.682;9.032;2023-04-06T03:08:17;-2.90;1.00
13470;DHT22;6807;48.682;9.032;2023-04-06T03:10:45;-2.90;1.00
13470;DHT22;6807;48.682;9.032;2023-04-06T03:13:12;-2.90;1.00
13470;DHT22;6807;48.682;9.032;2023-04-06T03:15:39;-2.90;1.00
13470;DHT22;6807;48.682;9.032;2023-04-06T03:18:06;-2.90;1.00
13470;DHT22;6807;48.682;9.032;2023-04-06T03:20:33;-2.90;1.00
13470;DHT22;6807;48.682;9.032;2023-04-06T03:23:02;-2.90;1.00
13470;DHT22;6807;48.682;9.032;2023-04-06T03:25:29;-2.90;1.00
13470;DHT22;6807;48.682;9.032;2023-04-06T03:27:57;-3.00;1.00
13470;DHT22;6807;48.682;9.032;2023-04-06T03:30:24;-3.00;1.00
13470;DHT22;6807;48.682;9.032;2023-04-06T03:32:53;-2.90;1.00
13470;DHT22;6807;48.682;9.032;2023-04-06T03:35:22;-3.00;1.00
13470;DHT22;6807;48.682;9.032;2023-04-06T03:37:49;-3.00;1.00
13470;DHT22;6807;48.682;9.032;2023-04-06T03:40:17;-3.10;1.00
13470;DHT22;6807;48.682;9.032;2023-04-06T03:42:44;-3.10;1.00
13470;DHT22;6807;48.682;9.032;2023-04-06T03:45:11;-3.10;1.00
13470;DHT22;6807;48.682;9.032;2023-04-06T03:47:39;-3.10;1.00
13470;DHT22;6807;48.682;9.032;2023-04-06T03:50:07;-3.10;1.00
13470;DHT22;6807;48.682;9.032;2023-04-06T03:52:34;-3.10;1.00
13470;DHT22;6807;48.682;9.032;2023-04-06T03:55:02;-3.10;1.00
13470;DHT22;6807;48.682;9.032;2023-04-06T03:57:30;-3.10;1.00
13470;DHT22;6807;48.682;9.032;2023-04-06T03:59:59;-3.20;1.00
13470;DHT22;6807;48.682;9.032;2023-04-06T04:02:26;-3.20;1.00
13470;DHT22;6807;48.682;9.032;2023-04-06T04:04:53;-3.20;1.00
13470;DHT22;6807;48.682;9.032;2023-04-06T04:07:20;-3.30;1.00
13470;DHT22;6807;48.682;9.032;2023-04-06T04:09:49;-3.30;1.00
13470;DHT22;6807;48.682;9.032;2023-04-06T04:12:16;-3.30;1.00
13470;DHT22;6807;48.682;9.032;2023-04-06T04:14:45;-3.30;1.00
13470;DHT22;6807;48.682;9.032;2023-04-06T04:17:12;-3.30;1.00
13470;DHT22;6807;48.682;9.032;2023-04-06T04:19:39;-2.30;1.00
13470;DHT22;6807;48.682;9.032;2023-04-06T04:22:06;-3.30;1.00
13470;DHT22;6807;48.682;9.032;2023-04-06T04:24:33;-3.20;1.00
13470;DHT22;6807;48.682;9.032;2023-04-06T04:27:00;-3.30;1.00
13470;DHT22;6807;48.682;9.032;2023-04-06T04:31:55;-3.30;1.00
13470;DHT22;6807;48.682;9.032;2023-04-06T04:34:23;-3.30;1.00
13470;DHT22;6807;48.682;9.032;2023-04-06T04:36:50;-3.30;1.00
13470;DHT22;6807;48.682;9.032;2023-04-06T04:39:17;-3.40;1.00
13470;DHT22;6807;48.682;9.032;2023-04-06T04:41:44;-3.40;1.00
13470;DHT22;6807;48.682;9.032;2023-04-06T04:44:11;-3.10;1.00
13470;DHT22;6807;48.682;9.032;2023-04-06T04:46:39;-3.40;1.00
13470;DHT22;6807;48.682;9.032;2023-04-06T04:49:08;-3.40;1.00
13470;DHT22;6807;48.682;9.032;2023-04-06T04:51:35;-3.40;1.00
13470;DHT22;6807;48.682;9.032;2023-04-06T04:54:02;-1.70;1.00
13470;DHT22;6807;48.682;9.032;2023-04-06T04:56:29;-3.30;1.00
13470;DHT22;6807;48.682;9.032;2023-04-06T04:58:56;-3.20;1.00
13470;DHT22;6807;48.682;9.032;2023-04-06T05:01:23;-3.20;1.00
13470;DHT22;6807;48.682;9.032;2023-04-06T05:03:50;-1.80;1.00
13470;DHT22;6807;48.682;9.032;2023-04-06T05:06:19;-3.30;1.00
13470;DHT22;6807;48.682;9.032;2023-04-06T05:08:46;-2.00;1.00
13470;DHT22;6807;48.682;9.032;2023-04-06T05:11:13;-3.20;1.00
13470;DHT22;6807;48.682;9.032;2023-04-06T05:13:40;-1.60;1.00
13470;DHT22;6807;48.682;9.032;2023-04-06T05:16:07;-1.60;1.00
13470;DHT22;6807;48.682;9.032;2023-04-06T05:18:34;-3.00;1.00
13470;DHT22;6807;48.682;9.032;2023-04-06T05:21:01;-2.90;1.00
13470;DHT22;6807;48.682;9.032;2023-04-06T05:23:29;-2.90;1.00
13470;DHT22;6807;48.682;9.032;2023-04-06T05:25:56;-2.90;1.00
13470;DHT22;6807;48.682;9.032;2023-04-06T05:28:23;-1.20;1.00
13470;DHT22;6807;48.682;9.032;2023-04-06T05:30:50;-1.80;1.00
13470;DHT22;6807;48.682;9.032;2023-04-06T05:33:17;-1.30;1.00
13470;DHT22;6807;48.682;9.032;2023-04-06T05:35:44;-2.60;1.00
13470;DHT22;6807;48.682;9.032;2023-04-06T05:38:11;-2.30;1.00
13470;DHT22;6807;48.682;9.032;2023-04-06T05:40:40;-2.50;1.00
13470;DHT22;6807;48.682;9.032;2023-04-06T05:43:08;-1.10;1.00
13470;DHT22;6807;48.682;9.032;2023-04-06T05:45:35;-1.50;1.00
13470;DHT22;6807;48.682;9.032;2023-04-06T05:48:02;-1.70;1.00
13470;DHT22;6807;48.682;9.032;2023-04-06T05:50:29;-3.60;1.00
13470;DHT22;6807;48.682;9.032;2023-04-06T05:52:56;-0.70;1.00
13470;DHT22;6807;48.682;9.032;2023-04-06T05:55:23;0.20;1.00
13470;DHT22;6807;48.682;9.032;2023-04-06T05:57:51;-0.10;1.00
13470;DHT22;6807;48.682;9.032;2023-04-06T06:00:19;0.20;1.00
13470;DHT22;6807;48.682;9.032;2023-04-06T06:02:46;0.60;99.90
13470;DHT22;6807;48.682;9.032;2023-04-06T06:05:13;0.90;99.90
13470;DHT22;6807;48.682;9.032;2023-04-06T06:07:40;1.30;99.90
13470;DHT22;6807;48.682;9.032;2023-04-06T06:10:08;1.50;99.90
13470;DHT22;6807;48.682;9.032;2023-04-06T06:12:35;2.00;99.90
13470;DHT22;6807;48.682;9.032;2023-04-06T06:15:05;2.30;99.90
13470;DHT22;6807;48.682;9.032;2023-04-06T06:17:32;2.50;99.90
13470;DHT22;6807;48.682;9.032;2023-04-06T06:19:59;2.80;99.90
13470;DHT22;6807;48.682;9.032;2023-04-06T06:22:26;3.20;99.90
13470;DHT22;6807;48.682;9.032;2023-04-06T06:24:54;3.60;99.90
13470;DHT22;6807;48.682;9.032;2023-04-06T06:27:21;4.10;99.90
13470;DHT22;6807;48.682;9.032;2023-04-06T06:29:48;4.50;99.90
13470;DHT22;6807;48.682;9.032;2023-04-06T06:32:16;4.60;99.90
13470;DHT22;6807;48.682;9.032;2023-04-06T06:34:44;4.90;99.90
13470;DHT22;6807;48.682;9.032;2023-04-06T06:37:11;5.00;99.90
13470;DHT22;6807;48.682;9.032;2023-04-06T06:39:38;5.20;99.90
13470;DHT22;6807;48.682;9.032;2023-04-06T06:42:05;5.80;99.90
13470;DHT22;6807;48.682;9.032;2023-04-06T06:44:36;6.00;99.90
13470;DHT22;6807;48.682;9.032;2023-04-06T06:47:03;6.30;99.90
13470;DHT22;6807;48.682;9.032;2023-04-06T06:49:31;6.70;99.90
13470;DHT22;6807;48.682;9.032;2023-04-06T06:51:58;7.30;99.90
13470;DHT22;6807;48.682;9.032;2023-04-06T06:54:25;7.70;99.90
13470;DHT22;6807;48.682;9.032;2023-04-06T06:56:52;7.60;99.90
13470;DHT22;6807;48.682;9.032;2023-04-06T06:59:23;8.30;99.90
13470;DHT22;6807;48.682;9.032;2023-04-06T07:01:50;8.40;99.90
13470;DHT22;6807;48.682;9.032;2023-04-06T07:04:17;8.80;99.90
13470;DHT22;6807;48.682;9.032;2023-04-06T07:06:46;8.50;99.90
13470;DHT22;6807;48.682;9.032;2023-04-06T07:09:13;8.90;99.90
13470;DHT22;6807;48.682;9.032;2023-04-06T07:11:40;9.40;99.90
13470;DHT22;6807;48.682;9.032;2023-04-06T07:14:07;9.00;99.90
13470;DHT22;6807;48.682;9.032;2023-04-06T07:16:34;8.80;99.90
13470;DHT22;6807;48.682;9.032;2023-04-06T07:19:01;8.90;99.90
13470;DHT22;6807;48.682;9.032;2023-04-06T07:21:28;9.30;99.90
13470;DHT22;6807;48.682;9.032;2023-04-06T07:23:56;9.70;99.90
13470;DHT22;6807;48.682;9.032;2023-04-06T07:26:24;10.10;99.90
13470;DHT22;6807;48.682;9.032;2023-04-06T07:28:51;10.50;99.90
13470;DHT22;6807;48.682;9.032;2023-04-06T07:31:18;10.30;99.90
13470;DHT22;6807;48.682;9.032;2023-04-06T07:33:45;10.70;99.90
13470;DHT22;6807;48.682;9.032;2023-04-06T07:36:13;11.00;99.90
13470;DHT22;6807;48.682;9.032;2023-04-06T07:38:40;11.50;99.90
13470;DHT22;6807;48.682;9.032;2023-04-06T07:41:08;11.50;99.90
13470;DHT22;6807;48.682;9.032;2023-04-06T07:43:35;12.30;99.90
13470;DHT22;6807;48.682;9.032;2023-04-06T07:46:02;12.10;99.90
13470;DHT22;6807;48.682;9.032;2023-04-06T07:48:29;12.40;99.90
13470;DHT22;6807;48.682;9.032;2023-04-06T07:51:01;11.90;99.90
13470;DHT22;6807;48.682;9.032;2023-04-06T07:53:28;12.20;99.90
13470;DHT22;6807;48.682;9.032;2023-04-06T07:55:55;12.30;99.90
13470;DHT22;6807;48.682;9.032;2023-04-06T07:58:24;12.30;99.90
13470;DHT22;6807;48.682;9.032;2023-04-06T08:00:51;12.10;99.90
13470;DHT22;6807;48.682;9.032;2023-04-06T08:03:20;12.10;99.90
13470;DHT22;6807;48.682;9.032;2023-04-06T08:05:52;13.00;99.90
13470;DHT22;6807;48.682;9.032;2023-04-06T08:08:19;13.40;99.90
13470;DHT22;6807;48.682;9.032;2023-04-06T08:10:48;13.80;99.90
13470;DHT22;6807;48.682;9.032;2023-04-06T08:13:15;13.30;99.90
13470;DHT22;6807;48.682;9.032;2023-04-06T08:15:44;13.60;99.90
13470;DHT22;6807;48.682;9.032;2023-04-06T08:18:11;14.10;99.90
13470;DHT22;6807;48.682;9.032;2023-04-06T08:20:39;13.70;99.90
13470;DHT22;6807;48.682;9.032;2023-04-06T08:23:06;13.50;99.90
13470;DHT22;6807;48.682;9.032;2023-04-06T08:25:35;14.30;99.90
13470;DHT22;6807;48.682;9.032;2023-04-06T08:28:02;14.90;99.90
13470;DHT22;6807;48.682;9.032;2023-04-06T08:30:30;15.00;99.90
13470;DHT22;6807;48.682;9.032;2023-04-06T08:32:58;15.00;91.50
13470;DHT22;6807;48.682;9.032;2023-04-06T08:35:26;16.30;99.90
13470;DHT22;6807;48.682;9.032;2023-04-06T08:37:53;16.90;89.50
13470;DHT22;6807;48.682;9.032;2023-04-06T08:40:20;17.10;75.20
13470;DHT22;6807;48.682;9.032;2023-04-06T08:42:50;16.10;39.30
13470;DHT22;6807;48.682;9.032;2023-04-06T09:17:28;16.30;1.00
13470;DHT22;6807;48.682;9.032;2023-04-06T09:49:58;17.40;1.00
13470;DHT22;6807;48.682;9.032;2023-04-06T09:57:27;18.60;99.90
13470;DHT22;6807;48.682;9.032;2023-04-06T10:00:00;17.90;91.50
13470;DHT22;6807;48.682;9.032;2023-04-06T10:02:39;17.80;99.90
13470;DHT22;6807;48.682;9.032;2023-04-06T10:05:10;16.30;27.30
13470;DHT22;6807;48.682;9.032;2023-04-06T10:07:40;16.90;96.60
13470;DHT22;6807;48.682;9.032;2023-04-06T10:10:08;16.70;51.90
13470;DHT22;6807;48.682;9.032;2023-04-06T10:12:38;17.70;91.20
13470;DHT22;6807;48.682;9.032;2023-04-06T10:15:06;16.30;54.30
13470;DHT22;6807;48.682;9.032;2023-04-06T10:17:34;17.50;68.90
13470;DHT22;6807;48.682;9.032;2023-04-06T10:20:06;16.80;44.30
13470;DHT22;6807;48.682;9.032;2023-04-06T10:22:40;17.60;46.00
13470;DHT22;6807;48.682;9.032;2023-04-06T10:25:08;18.30;64.60
13470;DHT22;6807;48.682;9.032;2023-04-06T10:27:35;18.70;35.00
13470;DHT22;6807;48.682;9.032;2023-04-06T10:30:05;18.40;13.80
13470;DHT22;6807;48.682;9.032;2023-04-06T10:32:34;18.30;21.50
13470;DHT22;6807;48.682;9.032;2023-04-06T10:35:06;17.80;52.70
13470;DHT22;6807;48.682;9.032;2023-04-06T10:37:47;16.80;59.20
13470;DHT22;6807;48.682;9.032;2023-04-06T10:40:23;18.30;24.90
13470;DHT22;6807;48.682;9.032;2023-04-06T10:42:52;18.50;78.90
13470;DHT22;6807;48.682;9.032;2023-04-06T10:45:24;19.10;35.80
13470;DHT22;6807;48.682;9.032;2023-04-06T10:47:53;17.70;44.60
13470;DHT22;6807;48.682;9.032;2023-04-06T10:50:22;17.90;23.40
13470;DHT22;6807;48.682;9.032;2023-04-06T10:52:59;16.50;99.90
13470;DHT22;6807;48.682;9.032;2023-04-06T10:55:26;17.90;99.90
13470;DHT22;6807;48.682;9.032;2023-04-06T10:57:55;17.70;99.90
13470;DHT22;6807;48.682;9.032;2023-04-06T11:00:24;19.20;99.90
13470;DHT22;6807;48.682;9.032;2023-04-06T11:02:58;19.40;99.90
13470;DHT22;6807;48.682;9.032;2023-04-06T11:05:25;18.30;31.40
13470;DHT22;6807;48.682;9.032;2023-04-06T11:07:53;17.30;7.90
13470;DHT22;6807;48.682;9.032;2023-04-06T11:10:21;18.50;32.20
13470;DHT22;6807;48.682;9.032;2023-04-06T11:12:53;19.00;99.90
13470;DHT22;6807;48.682;9.032;2023-04-06T11:15:20;18.90;99.90
13470;DHT22;6807;48.682;9.032;2023-04-06T11:17:49;19.40;9.10
13470;DHT22;6807;48.682;9.032;2023-04-06T11:20:16;19.40;35.80
13470;DHT22;6807;48.682;9.032;2023-04-06T11:22:52;19.80;99.90
13470;DHT22;6807;48.682;9.032;2023-04-06T11:25:19;20.70;45.00
13470;DHT22;6807;48.682;9.032;2023-04-06T11:27:47;19.60;38.90
13470;DHT22;6807;48.682;9.032;2023-04-06T11:30:14;18.60;1.00
13470;DHT22;6807;48.682;9.032;2023-04-06T11:32:43;19.30;61.90
13470;DHT22;6807;48.682;9.032;2023-04-06T11:35:21;20.10;99.90
13470;DHT22;6807;48.682;9.032;2023-04-06T11:37:49;20.70;99.90
13470;DHT22;6807;48.682;9.032;2023-04-06T11:40:21;20.10;1.00
13470;DHT22;6807;48.682;9.032;2023-04-06T11:42:53;20.30;42.20
13470;DHT22;6807;48.682;9.032;2023-04-06T11:45:22;20.30;99.90
13470;DHT22;6807;48.682;9.032;2023-04-06T11:48:00;19.70;96.30
13470;DHT22;6807;48.682;9.032;2023-04-06T11:50:33;20.20;99.90
13470;DHT22;6807;48.682;9.032;2023-04-06T11:53:01;19.60;78.60
13470;DHT22;6807;48.682;9.032;2023-04-06T11:55:28;19.60;85.90
13470;DHT22;6807;48.682;9.032;2023-04-06T11:57:56;20.60;40.80
13470;DHT22;6807;48.682;9.032;2023-04-06T12:00:24;20.60;23.70
13470;DHT22;6807;48.682;9.032;2023-04-06T12:02:51;20.20;4.20
13470;DHT22;6807;48.682;9.032;2023-04-06T12:05:18;20.00;29.50
13470;DHT22;6807;48.682;9.032;2023-04-06T12:07:47;19.80;1.00
13470;DHT22;6807;48.682;9.032;2023-04-06T12:10:14;18.30;3.20
13470;DHT22;6807;48.682;9.032;2023-04-06T12:12:41;18.00;1.00
13470;DHT22;6807;48.682;9.032;2023-04-06T12:15:09;19.10;34.60
13470;DHT22;6807;48.682;9.032;2023-04-06T12:17:36;19.30;12.70
13470;DHT22;6807;48.682;9.032;2023-04-06T12:20:04;19.50;84.10
13470;DHT22;6807;48.682;9.032;2023-04-06T12:22:31;18.60;83.80
13470;DHT22;6807;48.682;9.032;2023-04-06T12:24:59;19.40;39.40
13470;DHT22;6807;48.682;9.032;2023-04-06T12:27:26;18.20;1.00
13470;DHT22;6807;48.682;9.032;2023-04-06T12:29:55;18.40;1.00
13470;DHT22;6807;48.682;9.032;2023-04-06T12:32:22;19.20;97.30
13470;DHT22;6807;48.682;9.032;2023-04-06T12:34:51;19.20;99.90
13470;DHT22;6807;48.682;9.032;2023-04-06T12:37:19;19.70;43.50
13470;DHT22;6807;48.682;9.032;2023-04-06T12:39:46;19.60;19.30
13470;DHT22;6807;48.682;9.032;2023-04-06T12:42:15;19.30;98.90
13470;DHT22;6807;48.682;9.032;2023-04-06T12:44:42;18.20;1.00
13470;DHT22;6807;48.682;9.032;2023-04-06T12:47:10;17.10;1.00
13470;DHT22;6807;48.682;9.032;2023-04-06T12:49:38;17.40;1.00
13470;DHT22;6807;48.682;9.032;2023-04-06T12:52:05;17.80;60.40
13470;DHT22;6807;48.682;9.032;2023-04-06T12:54:32;18.80;99.90
13470;DHT22;6807;48.682;9.032;2023-04-06T12:56:59;19.90;40.00
13470;DHT22;6807;48.682;9.032;2023-04-06T12:59:28;19.80;93.20
13470;DHT22;6807;48.682;9.032;2023-04-06T13:02:00;20.00;99.90
13470;DHT22;6807;48.682;9.032;2023-04-06T13:04:27;18.70;1.00
13470;DHT22;6807;48.682;9.032;2023-04-06T13:06:54;18.20;28.30
13470;DHT22;6807;48.682;9.032;2023-04-06T13:09:21;18.00;1.00
13470;DHT22;6807;48.682;9.032;2023-04-06T13:11:48;17.40;1.00
13470;DHT22;6807;48.682;9.032;2023-04-06T13:14:15;17.00;1.00
13470;DHT22;6807;48.682;9.032;2023-04-06T13:16:44;16.80;10.40
13470;DHT22;6807;48.682;9.032;2023-04-06T13:19:11;16.40;1.00
13470;DHT22;6807;48.682;9.032;2023-04-06T13:21:39;15.70;11.40
13470;DHT22;6807;48.682;9.032;2023-04-06T13:24:07;15.50;50.70
13470;DHT22;6807;48.682;9.032;2023-04-06T13:26:35;16.10;1.00
13470;DHT22;6807;48.682;9.032;2023-04-06T13:29:02;16.90;47.40
13470;DHT22;6807;48.682;9.032;2023-04-06T13:31:29;16.80;1.00
13470;DHT22;6807;48.682;9.032;2023-04-06T13:33:58;16.70;36.20
13470;DHT22;6807;48.682;9.032;2023-04-06T13:36:25;16.30;36.70
13470;DHT22;6807;48.682;9.032;2023-04-06T13:38:53;16.10;1.00
13470;DHT22;6807;48.682;9.032;2023-04-06T13:41:21;15.70;1.00
13470;DHT22;6807;48.682;9.032;2023-04-06T13:43:49;16.00;1.00
13470;DHT22;6807;48.682;9.032;2023-04-06T13:46:17;16.60;99.90
13470;DHT22;6807;48.682;9.032;2023-04-06T13:48:44;17.40;99.90
13470;DHT22;6807;48.682;9.032;2023-04-06T13:51:14;17.30;32.70
13470;DHT22;6807;48.682;9.032;2023-04-06T13:53:41;17.50;56.90
13470;DHT22;6807;48.682;9.032;2023-04-06T13:56:08;17.00;65.60
13470;DHT22;6807;48.682;9.032;2023-04-06T13:58:35;17.50;52.70
13470;DHT22;6807;48.682;9.032;2023-04-06T14:01:04;18.50;1.00
13470;DHT22;6807;48.682;9.032;2023-04-06T14:03:32;18.10;94.10
13470;DHT22;6807;48.682;9.032;2023-04-06T14:05:59;18.50;51.40
13470;DHT22;6807;48.682;9.032;2023-04-06T14:08:27;18.30;50.20
13470;DHT22;6807;48.682;9.032;2023-04-06T14:10:54;18.20;36.40
13470;DHT22;6807;48.682;9.032;2023-04-06T14:13:23;17.80;99.90
13470;DHT22;6807;48.682;9.032;2023-04-06T14:15:53;17.90;98.00
13470;DHT22;6807;48.682;9.032;2023-04-06T14:18:23;18.30;99.90
13470;DHT22;6807;48.682;9.032;2023-04-06T14:21:03;17.80;95.70
13470;DHT22;6807;48.682;9.032;2023-04-06T14:23:33;16.90;99.90
13470;DHT22;6807;48.682;9.032;2023-04-06T14:26:01;15.20;33.80
13470;DHT22;6807;48.682;9.032;2023-04-06T14:28:30;15.00;8.40
13470;DHT22;6807;48.682;9.032;2023-04-06T14:30:58;15.30;35.70
13470;DHT22;6807;48.682;9.032;2023-04-06T14:33:25;15.90;22.00
13470;DHT22;6807;48.682;9.032;2023-04-06T14:35:52;15.50;10.50
13470;DHT22;6807;48.682;9.032;2023-04-06T14:38:19;15.00;19.70
13470;DHT22;6807;48.682;9.032;2023-04-06T14:40:48;15.00;1.00
13470;DHT22;6807;48.682;9.032;2023-04-06T14:43:15;15.00;38.30
13470;DHT22;6807;48.682;9.032;2023-04-06T14:45:42;15.00;44.00
13470;DHT22;6807;48.682;9.032;2023-04-06T14:48:09;14.80;13.50
13470;DHT22;6807;48.682;9.032;2023-04-06T14:51:06;14.70;32.40
13470;DHT22;6807;48.682;9.032;2023-04-06T14:53:52;14.20;13.00
13470;DHT22;6807;48.682;9.032;2023-04-06T15:11:26;13.80;86.10
13470;DHT22;6807;48.682;9.032;2023-04-06T15:13:54;13.30;32.60
13470;DHT22;6807;48.682;9.032;2023-04-06T15:16:21;13.50;53.00
13470;DHT22;6807;48.682;9.032;2023-04-06T15:18:48;13.30;46.00
13470;DHT22;6807;48.682;9.032;2023-04-06T15:21:15;13.10;7.20
13470;DHT22;6807;48.682;9.032;2023-04-06T15:23:45;12.80;1.00
13470;DHT22;6807;48.682;9.032;2023-04-06T15:26:12;12.90;47.90
13470;DHT22;6807;48.682;9.032;2023-04-06T15:28:40;12.80;99.90
13470;DHT22;6807;48.682;9.032;2023-04-06T15:31:13;12.80;99.00
13470;DHT22;6807;48.682;9.032;2023-04-06T15:33:40;12.90;23.70
13470;DHT22;6807;48.682;9.032;2023-04-06T15:36:22;12.90;92.10
13470;DHT22;6807;48.682;9.032;2023-04-06T15:38:49;12.70;69.50
13470;DHT22;6807;48.682;9.032;2023-04-06T15:41:16;12.70;71.80
13470;DHT22;6807;48.682;9.032;2023-04-06T15:43:44;12.70;76.30
13470;DHT22;6807;48.682;9.032;2023-04-06T15:46:11;12.80;88.60
13470;DHT22;6807;48.682;9.032;2023-04-06T15:48:39;12.90;87.40
13470;DHT22;6807;48.682;9.032;2023-04-06T15:51:06;12.70;80.20
13470;DHT22;6807;48.682;9.032;2023-04-06T15:53:33;12.50;9.80
13470;DHT22;6807;48.682;9.032;2023-04-06T15:56:01;12.10;29.50
13470;DHT22;6807;48.682;9.032;2023-04-06T15:58:29;12.00;45.00
13470;DHT22;6807;48.682;9.032;2023-04-06T16:00:58;12.10;89.40
13470;DHT22;6807;48.682;9.032;2023-04-06T16:03:25;12.00;60.50
13470;DHT22;6807;48.682;9.032;2023-04-06T16:05:52;12.00;43.20
13470;DHT22;6807;48.682;9.032;2023-04-06T16:08:19;12.00;59.10
13470;DHT22;6807;48.682;9.032;2023-04-06T16:10:46;11.90;59.90
13470;DHT22;6807;48.682;9.032;2023-04-06T16:13:14;11.80;65.50
13470;DHT22;6807;48.682;9.032;2023-04-06T16:15:41;11.70;92.30
13470;DHT22;6807;48.682;9.032;2023-04-06T16:18:09;11.80;94.30
13470;DHT22;6807;48.682;9.032;2023-04-06T16:20:36;11.80;58.30
13470;DHT22;6807;48.682;9.032;2023-04-06T16:23:04;11.80;97.00
13470;DHT22;6807;48.682;9.032;2023-04-06T16:25:31;11.70;90.50
13470;DHT22;6807;48.682;9.032;2023-04-06T16:27:58;11.60;56.50
13470;DHT22;6807;48.682;9.032;2023-04-06T16:30:25;11.50;99.90
13470;DHT22;6807;48.682;9.032;2023-04-06T16:32:55;11.40;99.90
13470;DHT22;6807;48.682;9.032;2023-04-06T16:35:23;11.40;99.90
13470;DHT22;6807;48.682;9.032;2023-04-06T16:37:50;11.30;99.90
13470;DHT22;6807;48.682;9.032;2023-04-06T16:40:17;11.40;99.90
13470;DHT22;6807;48.682;9.032;2023-04-06T16:42:44;11.30;99.90
13470;DHT22;6807;48.682;9.032;2023-04-06T16:45:13;11.20;99.90
13470;DHT22;6807;48.682;9.032;2023-04-06T16:47:41;11.20;99.90
13470;DHT22;6807;48.682;9.032;2023-04-06T16:50:09;11.20;99.90
13470;DHT22;6807;48.682;9.032;2023-04-06T16:52:37;11.10;99.90
13470;DHT22;6807;48.682;9.032;2023-04-06T16:55:05;11.10;99.90
13470;DHT22;6807;48.682;9.032;2023-04-06T16:57:32;11.00;99.90
13470;DHT22;6807;48.682;9.032;2023-04-06T16:59:59;11.90;99.90
13470;DHT22;6807;48.682;9.032;2023-04-06T17:02:26;10.80;99.90
13470;DHT22;6807;48.682;9.032;2023-04-06T17:04:53;10.70;99.90
13470;DHT22;6807;48.682;9.032;2023-04-06T17:07:20;10.70;99.90
13470;DHT22;6807;48.682;9.032;2023-04-06T17:09:52;10.70;99.90
13470;DHT22;6807;48.682;9.032;2023-04-06T17:12:19;10.70;99.90
13470;DHT22;6807;48.682;9.032;2023-04-06T17:14:46;10.60;99.90
13470;DHT22;6807;48.682;9.032;2023-04-06T17:17:13;10.50;99.90
13470;DHT22;6807;48.682;9.032;2023-04-06T17:19:40;10.50;99.90
13470;DHT22;6807;48.682;9.032;2023-04-06T17:22:07;10.40;99.90